Time;durP1;ratioP1;P1;durP2;ratioP2;P2;SDS_P1;SDS_P2;PMS_P1;PMS_P2;Temp;Humidity;BMP_temperature;BMP_pressure;BME280_temperature;BME280_humidity;BME280_pressure;Samples;Min_cycle;Max_cycle;Signal;HPM_P1;HPM_P2
2022/01/04 00:02:17;;;;;;;4.60;3.05;;;;;;;;;;5066823;28;20194;-73
2022/01/04 00:04:44;;;;;;;5.72;3.30;;;;;;;;;;5064929;28;20198;-73
2022/01/04 00:07:11;;;;;;;3.75;3.10;;;;;;;;;;5064803;28;20561;-72
2022/01/04 00:09:42;;;;;;;5.50;2.72;;;;;;;;;;5063885;28;20274;-74
2022/01/04 00:15:10;;;;;;;4.10;2.70;;;;;;;;;;5009910;28;20232;-73
2022/01/04 00:17:38;;;;;;;2.83;2.63;;;;;;;;;;5004561;28;20196;-73
2022/01/04 00:20:05;;;;;;;3.65;2.50;;;;;;;;;;5033629;28;20194;-73
2022/01/04 00:22:32;;;;;;;3.25;2.95;;;;;;;;;;5064979;28;20198;-73
2022/01/04 00:25:01;;;;;;;4.93;2.50;;;;;;;;;;5070024;28;20653;-73
2022/01/04 00:27:28;;;;;;;3.45;2.80;;;;;;;;;;5071610;28;20603;-73
2022/01/04 00:29:55;;;;;;;3.33;3.03;;;;;;;;;;5061638;28;20573;-73
2022/01/04 00:32:22;;;;;;;4.20;2.70;;;;;;;;;;5069240;28;20241;-73
2022/01/04 00:34:49;;;;;;;3.35;2.45;;;;;;;;;;5065907;28;20289;-73
2022/01/04 00:37:17;;;;;;;4.80;2.95;;;;;;;;;;5064058;28;20194;-72
2022/01/04 00:39:44;;;;;;;4.88;3.30;;;;;;;;;;5056624;28;20277;-72
2022/01/04 00:42:12;;;;;;;3.40;2.08;;;;;;;;;;5061168;28;20197;-73
2022/01/04 00:44:39;;;;;;;3.55;2.60;;;;;;;;;;5070494;28;20209;-73
2022/01/04 00:47:08;;;;;;;4.30;2.33;;;;;;;;;;5056295;28;20202;-73
2022/01/04 00:49:34;;;;;;;6.75;2.33;;;;;;;;;;5065333;28;20202;-73
2022/01/04 00:52:01;;;;;;;3.58;2.25;;;;;;;;;;5064717;28;20212;-72
2022/01/04 00:54:29;;;;;;;3.33;2.75;;;;;;;;;;5068203;28;20206;-72
2022/01/04 00:56:56;;;;;;;2.88;2.10;;;;;;;;;;5070156;28;20198;-72
2022/01/04 00:59:24;;;;;;;2.35;2.10;;;;;;;;;;5064633;28;20206;-72
2022/01/04 01:01:51;;;;;;;2.28;2.08;;;;;;;;;;5067431;28;20205;-73
2022/01/04 01:04:19;;;;;;;3.38;2.25;;;;;;;;;;5064930;28;20227;-73
2022/01/04 01:06:46;;;;;;;2.90;2.40;;;;;;;;;;5062640;28;20623;-72
2022/01/04 01:09:13;;;;;;;8.20;2.10;;;;;;;;;;5065619;28;20225;-72
2022/01/04 01:11:40;;;;;;;1.90;1.80;;;;;;;;;;5070251;28;20222;-72
2022/01/04 01:14:07;;;;;;;2.50;1.67;;;;;;;;;;5067838;28;20198;-72
2022/01/04 01:16:36;;;;;;;2.33;2.13;;;;;;;;;;5062815;28;20679;-74
2022/01/04 01:19:03;;;;;;;2.95;2.20;;;;;;;;;;5067746;28;20770;-73
2022/01/04 01:21:30;;;;;;;6.13;2.45;;;;;;;;;;5064317;28;20205;-74
2022/01/04 01:23:57;;;;;;;4.75;2.25;;;;;;;;;;5070814;28;20202;-74
2022/01/04 01:26:24;;;;;;;3.65;2.08;;;;;;;;;;5070767;28;20648;-74
2022/01/04 01:28:51;;;;;;;2.50;2.10;;;;;;;;;;5069719;28;20237;-73
2022/01/04 01:31:18;;;;;;;2.78;2.05;;;;;;;;;;5068892;28;20198;-75
2022/01/04 01:33:46;;;;;;;3.78;2.42;;;;;;;;;;5065268;28;20568;-74
2022/01/04 01:36:14;;;;;;;3.10;1.85;;;;;;;;;;5065404;28;20198;-74
2022/01/04 01:38:41;;;;;;;2.42;2.22;;;;;;;;;;5068945;28;20664;-73
2022/01/04 01:41:08;;;;;;;2.08;1.90;;;;;;;;;;5057408;28;20199;-74
2022/01/04 01:43:35;;;;;;;2.67;1.83;;;;;;;;;;5069801;28;20194;-73
2022/01/04 01:46:02;;;;;;;3.17;2.15;;;;;;;;;;5058103;28;20198;-74
2022/01/04 01:48:29;;;;;;;3.13;2.15;;;;;;;;;;5070221;28;20191;-74
2022/01/04 01:50:57;;;;;;;4.22;2.25;;;;;;;;;;5066416;28;20190;-74
2022/01/04 01:53:25;;;;;;;2.45;2.15;;;;;;;;;;5065604;28;20224;-74
2022/01/04 01:55:52;;;;;;;3.15;2.47;;;;;;;;;;5073243;28;20541;-74
2022/01/04 01:58:19;;;;;;;2.30;2.10;;;;;;;;;;5079149;28;20193;-73
2022/01/04 02:00:46;;;;;;;3.22;2.72;;;;;;;;;;5071475;28;20182;-74
2022/01/04 02:03:13;;;;;;;3.58;1.90;;;;;;;;;;5067108;28;20201;-73
2022/01/04 02:05:40;;;;;;;2.63;2.15;;;;;;;;;;5069464;28;20202;-73
2022/01/04 02:08:09;;;;;;;2.15;1.83;;;;;;;;;;5062386;28;20240;-74
2022/01/04 02:10:37;;;;;;;3.22;2.50;;;;;;;;;;5056414;28;20213;-74
2022/01/04 02:13:04;;;;;;;2.25;1.85;;;;;;;;;;5069075;28;20225;-73
2022/01/04 02:15:33;;;;;;;2.50;2.05;;;;;;;;;;5068767;28;20194;-73
2022/01/04 02:18:01;;;;;;;3.95;2.65;;;;;;;;;;5063870;28;20202;-74
2022/01/04 02:20:30;;;;;;;2.33;1.95;;;;;;;;;;5071638;28;20190;-73
2022/01/04 02:22:57;;;;;;;2.72;2.38;;;;;;;;;;5062897;28;20197;-74
2022/01/04 02:25:24;;;;;;;2.00;1.80;;;;;;;;;;5069741;28;20202;-74
2022/01/04 02:27:52;;;;;;;4.28;2.50;;;;;;;;;;5069275;28;20222;-74
2022/01/04 02:30:20;;;;;;;2.35;1.88;;;;;;;;;;5068183;28;20224;-74
2022/01/04 02:32:48;;;;;;;3.40;2.15;;;;;;;;;;5066267;28;20600;-73
2022/01/04 02:35:16;;;;;;;4.30;2.47;;;;;;;;;;5068704;28;20661;-73
2022/01/04 02:37:45;;;;;;;2.80;1.98;;;;;;;;;;5063455;28;20200;-73
2022/01/04 02:40:12;;;;;;;2.40;2.13;;;;;;;;;;5062355;28;20202;-74
2022/01/04 02:42:39;;;;;;;2.45;1.42;;;;;;;;;;5063528;28;20201;-73
2022/01/04 02:45:07;;;;;;;3.63;1.90;;;;;;;;;;5064844;28;20671;-74
2022/01/04 02:47:34;;;;;;;6.07;2.70;;;;;;;;;;5067715;28;20202;-73
2022/01/04 02:50:01;;;;;;;3.75;2.33;;;;;;;;;;5068883;28;20595;-74
2022/01/04 02:52:28;;;;;;;1.90;1.60;;;;;;;;;;5062203;28;20228;-74
2022/01/04 02:54:57;;;;;;;2.20;1.98;;;;;;;;;;5068988;28;20190;-74
2022/01/04 02:57:24;;;;;;;2.78;1.85;;;;;;;;;;5069169;28;20565;-74
2022/01/04 02:59:51;;;;;;;2.25;2.05;;;;;;;;;;5065681;28;20197;-74
2022/01/04 03:02:18;;;;;;;2.90;2.30;;;;;;;;;;5066790;28;20195;-74
2022/01/04 03:04:45;;;;;;;2.80;2.45;;;;;;;;;;5068882;28;20198;-74
2022/01/04 03:07:12;;;;;;;6.57;1.98;;;;;;;;;;5066200;28;20190;-73
2022/01/04 03:09:39;;;;;;;3.58;2.03;;;;;;;;;;5067715;28;20205;-73
2022/01/04 03:12:09;;;;;;;2.35;2.13;;;;;;;;;;5075771;28;20210;-74
2022/01/04 03:14:36;;;;;;;2.33;1.75;;;;;;;;;;5069252;28;20187;-74
2022/01/04 03:17:03;;;;;;;3.58;2.42;;;;;;;;;;5067113;28;20194;-73
2022/01/04 03:19:30;;;;;;;2.72;1.60;;;;;;;;;;5068671;28;20202;-74
2022/01/04 03:21:57;;;;;;;2.30;1.85;;;;;;;;;;5068135;28;20194;-73
2022/01/04 03:24:25;;;;;;;3.10;2.00;;;;;;;;;;5067640;28;20198;-74
2022/01/04 03:26:52;;;;;;;3.65;1.80;;;;;;;;;;5062270;28;20248;-74
2022/01/04 03:29:23;;;;;;;2.20;2.00;;;;;;;;;;5075089;28;20198;-74
2022/01/04 03:31:50;;;;;;;3.20;2.40;;;;;;;;;;5069997;28;20302;-75
2022/01/04 03:34:17;;;;;;;2.33;2.00;;;;;;;;;;5073440;28;20197;-76
2022/01/04 03:36:45;;;;;;;2.45;2.25;;;;;;;;;;5069078;28;20190;-74
2022/01/04 03:39:12;;;;;;;2.60;2.38;;;;;;;;;;5071994;28;21036;-74
2022/01/04 03:41:40;;;;;;;2.35;1.52;;;;;;;;;;5072367;28;20198;-74
2022/01/04 03:44:08;;;;;;;2.75;2.45;;;;;;;;;;5060670;28;20205;-74
2022/01/04 03:46:36;;;;;;;3.47;2.08;;;;;;;;;;5063787;28;20190;-74
2022/01/04 03:49:03;;;;;;;1.75;1.65;;;;;;;;;;5071797;28;20534;-74
2022/01/04 03:51:31;;;;;;;1.65;1.52;;;;;;;;;;5065106;28;20673;-73
2022/01/04 03:53:58;;;;;;;2.47;1.83;;;;;;;;;;5071422;28;20224;-73
2022/01/04 03:56:25;;;;;;;2.28;1.70;;;;;;;;;;5072312;28;20562;-74
2022/01/04 03:58:52;;;;;;;2.85;2.30;;;;;;;;;;5071927;28;20223;-74
2022/01/04 04:01:19;;;;;;;3.60;3.05;;;;;;;;;;5062230;28;20203;-75
2022/01/04 04:03:48;;;;;;;4.63;2.33;;;;;;;;;;5070744;28;20191;-73
2022/01/04 04:06:15;;;;;;;3.75;2.20;;;;;;;;;;5066937;28;20543;-73
2022/01/04 04:08:42;;;;;;;2.50;2.30;;;;;;;;;;5071467;28;20198;-74
2022/01/04 04:11:09;;;;;;;2.38;2.10;;;;;;;;;;5066587;28;20198;-76
2022/01/04 04:13:36;;;;;;;1.77;1.58;;;;;;;;;;5069545;28;20226;-74
2022/01/04 04:16:04;;;;;;;1.90;1.80;;;;;;;;;;5064988;28;20194;-75
2022/01/04 04:18:31;;;;;;;2.50;2.30;;;;;;;;;;5075620;28;20201;-73
2022/01/04 04:20:59;;;;;;;2.03;1.83;;;;;;;;;;5074898;28;20254;-74
2022/01/04 04:23:26;;;;;;;2.05;1.85;;;;;;;;;;5071981;28;20656;-74
2022/01/04 04:25:53;;;;;;;2.08;1.88;;;;;;;;;;5075485;28;20656;-75
2022/01/04 04:28:20;;;;;;;4.65;2.80;;;;;;;;;;5067126;28;20585;-75
2022/01/04 04:30:47;;;;;;;1.98;1.80;;;;;;;;;;5063255;28;20213;-73
2022/01/04 04:33:14;;;;;;;2.35;1.85;;;;;;;;;;5073189;28;20218;-73
2022/01/04 04:35:41;;;;;;;6.53;2.75;;;;;;;;;;5084237;28;20193;-75
2022/01/04 04:38:10;;;;;;;2.10;2.00;;;;;;;;;;5075253;28;20197;-74
2022/01/04 04:40:37;;;;;;;2.45;2.25;;;;;;;;;;5071317;28;20669;-74
2022/01/04 04:43:05;;;;;;;3.05;2.05;;;;;;;;;;5071086;28;20608;-74
2022/01/04 04:45:32;;;;;;;2.85;2.55;;;;;;;;;;5067226;28;20213;-73
2022/01/04 04:47:59;;;;;;;2.35;2.15;;;;;;;;;;5070130;28;20194;-74
2022/01/04 04:50:26;;;;;;;2.65;2.20;;;;;;;;;;5061259;28;20285;-74
2022/01/04 04:52:53;;;;;;;2.35;2.00;;;;;;;;;;5077034;28;20214;-73
2022/01/04 04:55:21;;;;;;;2.58;2.33;;;;;;;;;;5071263;28;20206;-73
2022/01/04 04:57:48;;;;;;;2.30;2.05;;;;;;;;;;5080620;28;20202;-74
2022/01/04 05:00:16;;;;;;;2.72;2.40;;;;;;;;;;5074915;28;20191;-74
2022/01/04 05:02:43;;;;;;;2.20;2.00;;;;;;;;;;5073551;28;20189;-74
2022/01/04 05:05:11;;;;;;;5.60;2.45;;;;;;;;;;5071237;28;20201;-74
2022/01/04 05:07:38;;;;;;;2.25;2.00;;;;;;;;;;5067799;28;20276;-74
2022/01/04 05:10:05;;;;;;;3.78;2.70;;;;;;;;;;5071345;28;20206;-73
2022/01/04 05:12:34;;;;;;;2.72;2.53;;;;;;;;;;5067118;28;20190;-74
2022/01/04 05:15:01;;;;;;;3.30;2.75;;;;;;;;;;5067671;28;20209;-75
2022/01/04 05:17:28;;;;;;;2.42;2.08;;;;;;;;;;5072177;28;20193;-74
2022/01/04 05:19:55;;;;;;;2.53;2.33;;;;;;;;;;5076118;28;20197;-74
2022/01/04 05:22:22;;;;;;;3.22;2.20;;;;;;;;;;5067864;28;20201;-75
2022/01/04 05:24:49;;;;;;;3.65;2.38;;;;;;;;;;5082962;28;20197;-75
2022/01/04 05:27:16;;;;;;;2.78;2.58;;;;;;;;;;5070856;28;20206;-74
2022/01/04 05:29:45;;;;;;;5.35;3.00;;;;;;;;;;5083267;28;20217;-73
2022/01/04 05:32:12;;;;;;;3.47;2.75;;;;;;;;;;5079284;28;20208;-74
2022/01/04 05:34:39;;;;;;;2.75;2.55;;;;;;;;;;5058952;28;20327;-74
2022/01/04 05:37:06;;;;;;;2.38;2.17;;;;;;;;;;5067143;28;20681;-73
2022/01/04 05:39:33;;;;;;;2.58;2.35;;;;;;;;;;5082300;28;20211;-75
2022/01/04 05:42:00;;;;;;;3.28;2.58;;;;;;;;;;5062949;28;20205;-75
2022/01/04 05:44:27;;;;;;;3.58;3.28;;;;;;;;;;5071957;28;20198;-75
2022/01/04 05:46:56;;;;;;;4.15;3.10;;;;;;;;;;5071740;28;20556;-74
2022/01/04 05:49:23;;;;;;;2.80;2.58;;;;;;;;;;5068298;28;20672;-74
2022/01/04 05:51:50;;;;;;;2.80;2.60;;;;;;;;;;5070150;28;20186;-74
2022/01/04 05:54:17;;;;;;;3.03;2.58;;;;;;;;;;5087551;28;20209;-75
2022/01/04 05:56:44;;;;;;;2.60;2.40;;;;;;;;;;5065744;28;20190;-75
2022/01/04 05:59:11;;;;;;;3.20;2.92;;;;;;;;;;5067697;28;20202;-76
2022/01/04 06:01:39;;;;;;;2.80;2.60;;;;;;;;;;5068214;28;20202;-75
2022/01/04 06:04:10;;;;;;;3.90;2.80;;;;;;;;;;5076899;28;20197;-75
2022/01/04 06:06:38;;;;;;;3.65;3.35;;;;;;;;;;5061229;28;20190;-75
2022/01/04 06:09:07;;;;;;;3.42;2.67;;;;;;;;;;5083594;28;20204;-75
2022/01/04 06:11:56;;;;;;;2.95;2.65;;;;;;;;;;5062164;28;20247;-75
2022/01/04 06:17:09;;;;;;;3.30;2.90;;;;;;;;;;5067016;28;20250;-73
2022/01/04 06:19:37;;;;;;;2.70;2.50;;;;;;;;;;5069048;28;20543;-74
2022/01/04 06:22:04;;;;;;;3.42;2.83;;;;;;;;;;5067755;28;20194;-74
2022/01/04 06:24:31;;;;;;;3.30;3.00;;;;;;;;;;5072577;28;20567;-74
2022/01/04 06:26:59;;;;;;;3.30;3.05;;;;;;;;;;5073960;28;20558;-73
2022/01/04 06:29:26;;;;;;;3.42;2.80;;;;;;;;;;5070227;28;20213;-74
2022/01/04 06:31:53;;;;;;;3.40;3.10;;;;;;;;;;5068941;28;20213;-74
2022/01/04 06:34:20;;;;;;;4.10;3.03;;;;;;;;;;5077089;28;20217;-74
2022/01/04 06:36:48;;;;;;;3.75;2.60;;;;;;;;;;5068218;28;20204;-74
2022/01/04 06:39:15;;;;;;;3.00;2.80;;;;;;;;;;5083635;28;20198;-74
2022/01/04 06:41:43;;;;;;;6.53;3.50;;;;;;;;;;5083786;28;20194;-74
2022/01/04 06:44:10;;;;;;;3.92;3.58;;;;;;;;;;5076287;28;20504;-74
2022/01/04 06:46:38;;;;;;;3.63;3.33;;;;;;;;;;5068742;28;20556;-74
2022/01/04 06:49:05;;;;;;;5.15;4.75;;;;;;;;;;5068375;28;20542;-74
2022/01/04 06:51:32;;;;;;;4.72;3.20;;;;;;;;;;5067082;28;20211;-74
2022/01/04 06:54:01;;;;;;;4.57;3.25;;;;;;;;;;5069528;28;20260;-75
2022/01/04 06:56:28;;;;;;;3.00;2.67;;;;;;;;;;5068167;28;20795;-75
2022/01/04 06:58:55;;;;;;;3.70;3.40;;;;;;;;;;5075278;28;20669;-75
2022/01/04 07:01:22;;;;;;;4.18;3.25;;;;;;;;;;5067360;28;20634;-74
2022/01/04 07:03:49;;;;;;;5.82;3.45;;;;;;;;;;5087955;28;20751;-75
2022/01/04 07:06:16;;;;;;;3.85;3.45;;;;;;;;;;5067938;28;20207;-74
2022/01/04 07:08:44;;;;;;;3.10;2.80;;;;;;;;;;5071860;28;20628;-74
2022/01/04 07:11:13;;;;;;;3.42;3.13;;;;;;;;;;5076365;28;20205;-75
2022/01/04 07:13:40;;;;;;;4.10;3.63;;;;;;;;;;5070105;28;20221;-75
2022/01/04 07:16:07;;;;;;;4.93;3.05;;;;;;;;;;5067454;28;20201;-74
2022/01/04 07:18:35;;;;;;;6.47;4.45;;;;;;;;;;5079699;28;20190;-74
2022/01/04 07:21:02;;;;;;;3.95;3.55;;;;;;;;;;5069866;28;20210;-75
2022/01/04 07:23:29;;;;;;;4.20;3.85;;;;;;;;;;5076445;28;20204;-74
2022/01/04 07:25:56;;;;;;;4.13;3.72;;;;;;;;;;5087849;28;20183;-74
2022/01/04 07:28:25;;;;;;;3.53;2.92;;;;;;;;;;5067900;28;20221;-74
2022/01/04 07:30:52;;;;;;;8.18;3.88;;;;;;;;;;5073939;28;20659;-74
2022/01/04 07:33:19;;;;;;;6.65;4.65;;;;;;;;;;5085345;28;20532;-74
2022/01/04 07:35:46;;;;;;;4.95;2.92;;;;;;;;;;5056429;28;20195;-74
2022/01/04 07:38:13;;;;;;;4.70;4.20;;;;;;;;;;5073642;28;20213;-75
2022/01/04 07:40:41;;;;;;;4.35;3.40;;;;;;;;;;5089348;28;20195;-74
2022/01/04 07:43:08;;;;;;;3.33;3.00;;;;;;;;;;5077591;28;20210;-75
2022/01/04 07:45:36;;;;;;;4.57;3.80;;;;;;;;;;5068458;28;20193;-73
2022/01/04 07:48:05;;;;;;;4.75;4.05;;;;;;;;;;5081636;28;20195;-76
2022/01/04 07:50:32;;;;;;;5.05;4.00;;;;;;;;;;5060079;28;20633;-76
2022/01/04 07:52:59;;;;;;;4.72;3.45;;;;;;;;;;5062101;28;20202;-75
2022/01/04 07:55:26;;;;;;;3.35;2.83;;;;;;;;;;5061993;28;20225;-74
2022/01/04 07:57:54;;;;;;;3.53;3.22;;;;;;;;;;5079165;28;20215;-76
2022/01/04 08:00:21;;;;;;;3.97;3.30;;;;;;;;;;5066014;28;20197;-74
2022/01/04 08:02:49;;;;;;;4.20;3.78;;;;;;;;;;5075227;28;20202;-74
2022/01/04 08:05:16;;;;;;;4.78;3.80;;;;;;;;;;5075465;28;20202;-74
2022/01/04 08:07:43;;;;;;;4.63;4.20;;;;;;;;;;5065935;28;20312;-73
2022/01/04 08:10:11;;;;;;;8.25;3.80;;;;;;;;;;5071946;28;20217;-73
2022/01/04 08:12:38;;;;;;;5.20;4.20;;;;;;;;;;5070256;28;20205;-73
2022/01/04 08:15:06;;;;;;;3.90;3.30;;;;;;;;;;5080504;28;20252;-74
2022/01/04 08:17:33;;;;;;;4.10;3.70;;;;;;;;;;5084504;28;20200;-73
2022/01/04 08:20:02;;;;;;;4.28;3.40;;;;;;;;;;5075237;28;20204;-73
2022/01/04 08:22:32;;;;;;;4.47;3.45;;;;;;;;;;5073820;28;20202;-72
2022/01/04 08:25:01;;;;;;;4.07;3.70;;;;;;;;;;5073509;28;20198;-72
2022/01/04 08:27:28;;;;;;;4.60;3.70;;;;;;;;;;5083445;28;20780;-72
2022/01/04 08:29:55;;;;;;;4.43;3.88;;;;;;;;;;5077033;28;20660;-74
2022/01/04 08:32:22;;;;;;;4.47;3.47;;;;;;;;;;5073421;28;20202;-74
2022/01/04 08:34:49;;;;;;;4.20;3.80;;;;;;;;;;5083758;28;21627;-73
2022/01/04 08:37:18;;;;;;;6.93;4.60;;;;;;;;;;5071820;28;20645;-75
2022/01/04 08:39:45;;;;;;;4.50;4.10;;;;;;;;;;5071187;28;20201;-74
2022/01/04 08:42:12;;;;;;;5.47;4.68;;;;;;;;;;5083760;28;20540;-72
2022/01/04 08:44:40;;;;;;;4.22;3.72;;;;;;;;;;5081450;28;20209;-74
2022/01/04 08:47:07;;;;;;;6.28;4.57;;;;;;;;;;5071598;28;20201;-73
2022/01/04 08:49:35;;;;;;;5.07;4.30;;;;;;;;;;5080685;28;20594;-72
2022/01/04 08:52:02;;;;;;;5.40;4.38;;;;;;;;;;5062888;28;20261;-72
2022/01/04 08:54:31;;;;;;;5.05;4.03;;;;;;;;;;5071081;28;20498;-72
2022/01/04 08:56:58;;;;;;;5.25;4.40;;;;;;;;;;5072219;28;20224;-72
2022/01/04 08:59:25;;;;;;;5.30;4.68;;;;;;;;;;5082213;28;20208;-73
2022/01/04 09:01:52;;;;;;;4.82;4.13;;;;;;;;;;5078583;28;20700;-73
2022/01/04 09:04:20;;;;;;;6.25;4.57;;;;;;;;;;5081593;28;20197;-73
2022/01/04 09:06:47;;;;;;;5.05;4.32;;;;;;;;;;5066020;28;20588;-72
2022/01/04 09:09:14;;;;;;;5.00;4.32;;;;;;;;;;5084641;28;20470;-71
2022/01/04 09:11:43;;;;;;;6.63;4.55;;;;;;;;;;5070818;28;20191;-73
2022/01/04 09:14:24;;;;;;;4.82;4.07;;;;;;;;;;5074887;28;20213;-73
2022/01/04 09:19:36;;;;;;;4.80;3.75;;;;;;;;;;5075283;28;20205;-73
2022/01/04 09:22:04;;;;;;;6.82;4.22;;;;;;;;;;5060656;28;20229;-72
2022/01/04 09:24:31;;;;;;;5.70;5.05;;;;;;;;;;5084066;28;20196;-72
2022/01/04 09:26:59;;;;;;;5.45;4.13;;;;;;;;;;5083646;28;20217;-72
2022/01/04 09:29:27;;;;;;;5.35;4.25;;;;;;;;;;5082948;28;20659;-72
2022/01/04 09:31:55;;;;;;;7.13;4.38;;;;;;;;;;5072357;28;20669;-73
2022/01/04 09:34:22;;;;;;;5.63;4.20;;;;;;;;;;5070222;28;20305;-72
2022/01/04 09:36:49;;;;;;;5.15;4.60;;;;;;;;;;5068148;28;20206;-73
2022/01/04 09:39:18;;;;;;;8.77;4.63;;;;;;;;;;5068637;28;20194;-72
2022/01/04 09:41:45;;;;;;;5.88;4.70;;;;;;;;;;5078669;28;20198;-73
2022/01/04 09:44:14;;;;;;;5.93;4.53;;;;;;;;;;5077855;28;20214;-73
2022/01/04 09:46:41;;;;;;;6.68;5.07;;;;;;;;;;5071737;28;20224;-72
2022/01/04 09:49:09;;;;;;;4.80;4.30;;;;;;;;;;5074678;28;20193;-72
2022/01/04 09:51:37;;;;;;;8.45;4.65;;;;;;;;;;5068689;28;20213;-72
2022/01/04 09:54:04;;;;;;;5.90;4.70;;;;;;;;;;5067800;28;20470;-72
2022/01/04 09:56:31;;;;;;;4.95;4.25;;;;;;;;;;5071287;28;20198;-72
2022/01/04 09:58:58;;;;;;;6.43;4.40;;;;;;;;;;5069569;28;20649;-72
2022/01/04 10:01:28;;;;;;;5.80;4.50;;;;;;;;;;5068234;28;20194;-72
2022/01/04 10:03:55;;;;;;;6.55;4.90;;;;;;;;;;5066475;28;20553;-72
2022/01/04 10:06:22;;;;;;;8.85;5.43;;;;;;;;;;5063852;28;20195;-73
2022/01/04 10:08:51;;;;;;;7.82;6.35;;;;;;;;;;5067221;28;20195;-73
2022/01/04 10:11:18;;;;;;;11.43;7.72;;;;;;;;;;5071029;28;20462;-72
2022/01/04 10:13:45;;;;;;;9.05;7.03;;;;;;;;;;5066953;28;20191;-71
2022/01/04 10:16:16;;;;;;;9.57;7.07;;;;;;;;;;5066637;28;20233;-72
2022/01/04 10:18:47;;;;;;;10.05;8.63;;;;;;;;;;5068516;28;20199;-72
2022/01/04 10:21:15;;;;;;;9.15;7.30;;;;;;;;;;5064958;28;20219;-71
2022/01/04 10:23:50;;;;;;;11.07;7.30;;;;;;;;;;5066754;28;20277;-75
2022/01/04 10:26:18;;;;;;;8.45;7.18;;;;;;;;;;5068063;28;20220;-72
2022/01/04 10:28:46;;;;;;;9.85;6.68;;;;;;;;;;5066466;28;20194;-70
2022/01/04 10:31:13;;;;;;;8.48;6.65;;;;;;;;;;5071333;28;20216;-72
2022/01/04 10:33:40;;;;;;;10.60;6.55;;;;;;;;;;5070614;28;20584;-72
2022/01/04 10:36:12;;;;;;;7.68;6.07;;;;;;;;;;5069612;28;20226;-72
2022/01/04 10:38:40;;;;;;;7.30;5.95;;;;;;;;;;5068049;28;20197;-71
2022/01/04 10:41:08;;;;;;;6.25;5.53;;;;;;;;;;5079336;28;20197;-71
2022/01/04 10:43:40;;;;;;;6.80;5.78;;;;;;;;;;5077697;28;20194;-72
2022/01/04 10:46:07;;;;;;;6.15;5.50;;;;;;;;;;5077597;28;20207;-71
2022/01/04 10:48:36;;;;;;;5.57;5.05;;;;;;;;;;5079864;28;20213;-71
2022/01/04 10:51:06;;;;;;;9.55;6.25;;;;;;;;;;5067706;28;20200;-71
2022/01/04 10:53:36;;;;;;;7.70;5.28;;;;;;;;;;5054860;28;20198;-71
2022/01/04 10:56:04;;;;;;;6.03;5.43;;;;;;;;;;5070591;28;20214;-71
2022/01/04 10:58:33;;;;;;;7.20;5.47;;;;;;;;;;5077303;28;20683;-71
2022/01/04 11:01:00;;;;;;;6.75;4.95;;;;;;;;;;5075769;28;20564;-71
2022/01/04 11:03:31;;;;;;;5.00;4.07;;;;;;;;;;5068315;28;20202;-72
2022/01/04 11:06:00;;;;;;;5.85;4.68;;;;;;;;;;5075199;28;20580;-72
2022/01/04 11:08:28;;;;;;;6.63;4.72;;;;;;;;;;5074731;28;20197;-72
2022/01/04 11:10:56;;;;;;;7.05;5.03;;;;;;;;;;5085331;28;20194;-72
2022/01/04 11:13:24;;;;;;;9.15;5.13;;;;;;;;;;5077390;28;20206;-71
2022/01/04 11:15:51;;;;;;;8.43;4.90;;;;;;;;;;5068912;28;20218;-71
2022/01/04 11:18:18;;;;;;;6.47;5.35;;;;;;;;;;5064744;28;20202;-71
2022/01/04 11:20:46;;;;;;;5.60;4.43;;;;;;;;;;5076714;28;20204;-72
2022/01/04 11:23:14;;;;;;;6.13;5.03;;;;;;;;;;5066100;28;20213;-71
2022/01/04 11:25:41;;;;;;;5.22;4.72;;;;;;;;;;5076797;28;20222;-71
2022/01/04 11:28:11;;;;;;;6.18;5.60;;;;;;;;;;5071266;28;20226;-71
2022/01/04 11:30:43;;;;;;;9.60;5.25;;;;;;;;;;5064384;28;20193;-72
2022/01/04 11:33:15;;;;;;;8.73;6.10;;;;;;;;;;5074179;28;20200;-72
2022/01/04 11:35:42;;;;;;;7.22;5.15;;;;;;;;;;5072774;28;20222;-71
2022/01/04 11:38:09;;;;;;;6.80;5.97;;;;;;;;;;5063058;28;20213;-72
2022/01/04 11:40:41;;;;;;;8.25;6.72;;;;;;;;;;5068501;28;20194;-72
2022/01/04 11:43:26;;;;;;;7.28;6.40;;;;;;;;;;5071293;28;20551;-71
2022/01/04 11:45:53;;;;;;;10.88;6.43;;;;;;;;;;5068554;28;20247;-73
2022/01/04 11:48:28;;;;;;;6.85;6.15;;;;;;;;;;5070038;28;20194;-72
2022/01/04 11:50:55;;;;;;;7.07;6.10;;;;;;;;;;5062910;28;20553;-72
2022/01/04 11:53:22;;;;;;;8.13;6.60;;;;;;;;;;5073343;28;20186;-72
2022/01/04 11:55:50;;;;;;;8.35;7.45;;;;;;;;;;5070986;28;20700;-72
2022/01/04 11:58:21;;;;;;;9.48;7.30;;;;;;;;;;5072377;28;20194;-72
2022/01/04 12:00:57;;;;;;;9.52;8.05;;;;;;;;;;5066228;28;20198;-73
2022/01/04 12:03:37;;;;;;;12.68;8.20;;;;;;;;;;5072831;28;20194;-74
2022/01/04 12:06:05;;;;;;;11.82;9.18;;;;;;;;;;5055361;28;20218;-72
2022/01/04 12:08:34;;;;;;;13.75;10.20;;;;;;;;;;5068068;28;20199;-72
2022/01/04 12:11:01;;;;;;;10.25;8.88;;;;;;;;;;5066714;28;20202;-71
2022/01/04 12:13:47;;;;;;;10.77;8.82;;;;;;;;;;5065510;28;20190;-75
2022/01/04 12:16:14;;;;;;;13.45;9.95;;;;;;;;;;5062128;28;20716;-73
2022/01/04 12:19:02;;;;;;;10.68;9.15;;;;;;;;;;5068569;28;20198;-74
2022/01/04 12:21:42;;;;;;;10.43;8.20;;;;;;;;;;5063543;28;20191;-76
2022/01/04 12:24:11;;;;;;;8.20;7.40;;;;;;;;;;5062339;28;20194;-76
2022/01/04 12:26:39;;;;;;;9.05;8.00;;;;;;;;;;5065959;28;20287;-77
2022/01/04 12:29:21;;;;;;;10.88;8.63;;;;;;;;;;5066254;28;20213;-73
2022/01/04 12:31:48;;;;;;;10.30;8.70;;;;;;;;;;5062076;28;20213;-74
2022/01/04 12:34:30;;;;;;;13.07;8.50;;;;;;;;;;5065218;28;20221;-73
2022/01/04 12:36:58;;;;;;;8.88;8.02;;;;;;;;;;5048117;28;20235;-73
2022/01/04 12:39:32;;;;;;;10.57;9.48;;;;;;;;;;5060184;28;20722;-73
2022/01/04 12:41:59;;;;;;;9.93;8.93;;;;;;;;;;5067636;28;20213;-74
2022/01/04 12:44:28;;;;;;;12.20;9.55;;;;;;;;;;5065039;28;20198;-73
2022/01/04 12:46:55;;;;;;;8.98;7.90;;;;;;;;;;5067445;28;20220;-73
2022/01/04 12:49:23;;;;;;;13.23;9.40;;;;;;;;;;5064949;28;20190;-72
2022/01/04 12:51:52;;;;;;;12.15;10.35;;;;;;;;;;5075895;28;20198;-72
2022/01/04 12:54:20;;;;;;;9.32;8.27;;;;;;;;;;5064564;28;20190;-74
2022/01/04 12:56:47;;;;;;;13.90;10.88;;;;;;;;;;5068106;28;20704;-74
2022/01/04 12:59:19;;;;;;;12.98;10.50;;;;;;;;;;5064190;28;20209;-72
2022/01/04 13:01:49;;;;;;;11.90;9.50;;;;;;;;;;5067012;28;20198;-72
2022/01/04 13:04:21;;;;;;;10.88;9.77;;;;;;;;;;5065756;28;20205;-73
2022/01/04 13:06:48;;;;;;;12.13;10.77;;;;;;;;;;5062529;28;20259;-72
2022/01/04 13:09:18;;;;;;;10.68;9.38;;;;;;;;;;5065564;28;20213;-72
2022/01/04 13:11:49;;;;;;;12.80;9.48;;;;;;;;;;5067093;28;20559;-70
2022/01/04 13:14:21;;;;;;;14.80;11.63;;;;;;;;;;5064377;28;20200;-72
2022/01/04 13:16:49;;;;;;;14.38;10.23;;;;;;;;;;5066392;28;20221;-77
2022/01/04 13:19:18;;;;;;;11.98;9.77;;;;;;;;;;5059317;28;20723;-77
2022/01/04 13:21:45;;;;;;;13.88;9.93;;;;;;;;;;5062184;28;20222;-77
2022/01/04 13:24:12;;;;;;;13.52;10.55;;;;;;;;;;5065552;28;20205;-77
2022/01/04 13:26:39;;;;;;;12.85;11.05;;;;;;;;;;5067721;28;20218;-76
2022/01/04 13:29:06;;;;;;;15.05;10.80;;;;;;;;;;5065906;28;20221;-75
2022/01/04 13:31:34;;;;;;;10.65;9.55;;;;;;;;;;5063939;28;20197;-81
2022/01/04 13:34:02;;;;;;;10.90;9.13;;;;;;;;;;5061352;28;20202;-76
2022/01/04 13:36:30;;;;;;;12.15;10.80;;;;;;;;;;5064023;28;20225;-75
2022/01/04 13:38:58;;;;;;;11.10;9.55;;;;;;;;;;5059727;28;20202;-75
2022/01/04 13:41:35;;;;;;;12.10;9.98;;;;;;;;;;5061303;28;20298;-76
2022/01/04 13:44:03;;;;;;;10.38;8.82;;;;;;;;;;5052089;28;20569;-74
2022/01/04 13:46:34;;;;;;;11.18;9.60;;;;;;;;;;5062590;28;20313;-75
2022/01/04 13:49:03;;;;;;;10.23;8.88;;;;;;;;;;5066304;28;20201;-73
2022/01/04 13:51:34;;;;;;;12.30;10.15;;;;;;;;;;5060439;28;20195;-75
2022/01/04 13:54:09;;;;;;;14.50;10.25;;;;;;;;;;5061284;28;20191;-75
2022/01/04 13:56:36;;;;;;;12.40;10.45;;;;;;;;;;5062405;28;20229;-76
2022/01/04 13:59:04;;;;;;;12.27;10.35;;;;;;;;;;5066912;28;20213;-78
2022/01/04 14:01:36;;;;;;;11.90;10.57;;;;;;;;;;5060915;28;20195;-78
2022/01/04 14:04:18;;;;;;;13.82;11.40;;;;;;;;;;5069037;28;20194;-78
2022/01/04 14:06:46;;;;;;;14.65;10.80;;;;;;;;;;5061793;28;20228;-78
2022/01/04 14:09:20;;;;;;;14.55;10.55;;;;;;;;;;5068689;28;20202;-78
2022/01/04 14:11:48;;;;;;;13.27;10.85;;;;;;;;;;5065317;28;20194;-77
2022/01/04 14:14:16;;;;;;;13.95;11.27;;;;;;;;;;5065438;28;20195;-78
2022/01/04 14:16:46;;;;;;;14.93;11.73;;;;;;;;;;5065288;28;20218;-77
2022/01/04 14:19:13;;;;;;;11.23;8.88;;;;;;;;;;5069078;28;20688;-77
2022/01/04 14:21:43;;;;;;;11.65;10.45;;;;;;;;;;5062267;28;20194;-75
2022/01/04 14:24:28;;;;;;;11.30;10.15;;;;;;;;;;5051707;28;20675;-73
2022/01/04 14:26:55;;;;;;;11.18;9.88;;;;;;;;;;5064641;28;20728;-75
2022/01/04 14:29:29;;;;;;;12.85;9.32;;;;;;;;;;5061858;28;20677;-74
2022/01/04 14:31:58;;;;;;;11.13;9.10;;;;;;;;;;5065219;28;20209;-74
2022/01/04 14:34:25;;;;;;;12.60;9.27;;;;;;;;;;5058694;28;20198;-73
2022/01/04 14:36:54;;;;;;;9.90;8.68;;;;;;;;;;5056832;28;20701;-74
2022/01/04 14:39:22;;;;;;;11.05;9.50;;;;;;;;;;5065108;28;20239;-74
2022/01/04 14:41:49;;;;;;;13.88;8.40;;;;;;;;;;5049493;28;20220;-75
2022/01/04 14:44:17;;;;;;;10.98;7.40;;;;;;;;;;5059811;28;20204;-77
2022/01/04 14:46:44;;;;;;;9.80;7.65;;;;;;;;;;5062022;28;20205;-74
2022/01/04 14:49:11;;;;;;;9.10;7.90;;;;;;;;;;5065303;28;20325;-76
2022/01/04 14:51:38;;;;;;;8.23;7.07;;;;;;;;;;5063591;28;20201;-74
2022/01/04 14:54:06;;;;;;;9.02;8.13;;;;;;;;;;5065380;28;20198;-73
2022/01/04 14:56:33;;;;;;;7.28;6.60;;;;;;;;;;5049388;28;20229;-73